sensor_id;sensor_type;location;lat;lon;timestamp;temperature;humidity
52397;DHT22;38322;53.108;6.308;2024-03-07T06:02:05;0.90;99.90
52397;DHT22;38322;53.108;6.308;2024-03-07T06:04:31;0.90;99.90
52397;DHT22;38322;53.108;6.308;2024-03-07T06:06:58;0.90;99.90
52397;DHT22;38322;53.108;6.308;2024-03-07T06:09:24;1.00;99.90
52397;DHT22;38322;53.108;6.308;2024-03-07T06:11:49;1.00;99.90
52397;DHT22;38322;53.108;6.308;2024-03-07T06:14:16;1.00;99.90
52397;DHT22;38322;53.108;6.308;2024-03-07T06:16:42;0.90;99.90
52397;DHT22;38322;53.108;6.308;2024-03-07T06:19:08;1.00;99.90
52397;DHT22;38322;53.108;6.308;2024-03-07T06:21:36;0.90;99.90
52397;DHT22;38322;53.108;6.308;2024-03-07T06:24:02;1.00;99.90
52397;DHT22;38322;53.108;6.308;2024-03-07T06:26:30;1.00;99.90
52397;DHT22;38322;53.108;6.308;2024-03-07T06:29:11;1.00;99.90
52397;DHT22;38322;53.108;6.308;2024-03-07T06:31:37;1.00;99.90
52397;DHT22;38322;53.108;6.308;2024-03-07T06:34:03;1.00;99.90
52397;DHT22;38322;53.108;6.308;2024-03-07T06:36:29;1.00;99.90
52397;DHT22;38322;53.108;6.308;2024-03-07T06:38:55;1.00;99.90
52397;DHT22;38322;53.108;6.308;2024-03-07T06:41:21;1.00;99.90
52397;DHT22;38322;53.108;6.308;2024-03-07T06:43:48;1.10;99.90
52397;DHT22;38322;53.108;6.308;2024-03-07T06:46:15;1.10;99.90
52397;DHT22;38322;53.108;6.308;2024-03-07T06:48:42;1.10;99.90
52397;DHT22;38322;53.108;6.308;2024-03-07T06:51:08;1.10;99.90
52397;DHT22;38322;53.108;6.308;2024-03-07T06:53:34;1.20;99.90
52397;DHT22;38322;53.108;6.308;2024-03-07T06:56:00;1.20;99.90
52397;DHT22;38322;53.108;6.308;2024-03-07T06:58:26;1.30;99.90
52397;DHT22;38322;53.108;6.308;2024-03-07T07:00:52;1.30;99.90
52397;DHT22;38322;53.108;6.308;2024-03-07T07:03:20;1.30;99.90
52397;DHT22;38322;53.108;6.308;2024-03-07T07:05:47;1.30;99.90
52397;DHT22;38322;53.108;6.308;2024-03-07T07:08:12;1.40;99.90
52397;DHT22;38322;53.108;6.308;2024-03-07T07:10:40;1.40;99.90
52397;DHT22;38322;53.108;6.308;2024-03-07T07:13:07;1.50;99.90
52397;DHT22;38322;53.108;6.308;2024-03-07T07:15:33;1.50;99.90
52397;DHT22;38322;53.108;6.308;2024-03-07T07:17:59;1.50;99.90
52397;DHT22;38322;53.108;6.308;2024-03-07T07:20:25;1.50;99.90
52397;DHT22;38322;53.108;6.308;2024-03-07T07:22:50;1.50;99.90
52397;DHT22;38322;53.108;6.308;2024-03-07T07:25:18;1.60;99.90
52397;DHT22;38322;53.108;6.308;2024-03-07T07:27:47;1.60;99.90
52397;DHT22;38322;53.108;6.308;2024-03-07T07:30:15;1.60;99.90
52397;DHT22;38322;53.108;6.308;2024-03-07T07:32:41;1.60;99.90
52397;DHT22;38322;53.108;6.308;2024-03-07T07:35:09;1.60;99.90
52397;DHT22;38322;53.108;6.308;2024-03-07T07:37:39;1.70;99.90
52397;DHT22;38322;53.108;6.308;2024-03-07T07:40:07;1.60;99.90
52397;DHT22;38322;53.108;6.308;2024-03-07T07:42:35;1.60;99.90
52397;DHT22;38322;53.108;6.308;2024-03-07T07:45:06;1.60;99.90
52397;DHT22;38322;53.108;6.308;2024-03-07T07:47:32;1.60;99.90
52397;DHT22;38322;53.108;6.308;2024-03-07T07:49:58;1.50;99.90
52397;DHT22;38322;53.108;6.308;2024-03-07T07:52:24;1.40;99.90
52397;DHT22;38322;53.108;6.308;2024-03-07T07:54:50;1.40;99.90
52397;DHT22;38322;53.108;6.308;2024-03-07T07:57:16;1.40;99.90
52397;DHT22;38322;53.108;6.308;2024-03-07T07:59:41;1.40;99.90
52397;DHT22;38322;53.108;6.308;2024-03-07T08:02:07;1.40;99.90
52397;DHT22;38322;53.108;6.308;2024-03-07T08:04:33;1.40;99.90
52397;DHT22;38322;53.108;6.308;2024-03-07T08:06:59;1.40;99.90
52397;DHT22;38322;53.108;6.308;2024-03-07T08:09:25;1.30;99.90
52397;DHT22;38322;53.108;6.308;2024-03-07T08:11:51;1.40;99.90
52397;DHT22;38322;53.108;6.308;2024-03-07T08:14:18;1.30;99.90
52397;DHT22;38322;53.108;6.308;2024-03-07T08:16:48;1.30;99.90
52397;DHT22;38322;53.108;6.308;2024-03-07T08:19:14;1.40;99.90
52397;DHT22;38322;53.108;6.308;2024-03-07T08:21:40;1.40;99.90
52397;DHT22;38322;53.108;6.308;2024-03-07T08:24:06;1.40;99.90
52397;DHT22;38322;53.108;6.308;2024-03-07T08:26:36;1.50;99.90
52397;DHT22;38322;53.108;6.308;2024-03-07T08:29:02;1.60;99.90
52397;DHT22;38322;53.108;6.308;2024-03-07T08:31:28;1.70;99.90
52397;DHT22;38322;53.108;6.308;2024-03-07T08:33:54;1.70;99.90
52397;DHT22;38322;53.108;6.308;2024-03-07T08:36:20;1.70;99.90
52397;DHT22;38322;53.108;6.308;2024-03-07T08:38:46;1.70;99.90
52397;DHT22;38322;53.108;6.308;2024-03-07T08:41:12;1.80;99.90
52397;DHT22;38322;53.108;6.308;2024-03-07T08:43:38;1.80;99.90
52397;DHT22;38322;53.108;6.308;2024-03-07T08:46:03;1.90;99.90
52397;DHT22;38322;53.108;6.308;2024-03-07T08:48:29;2.00;99.90
52397;DHT22;38322;53.108;6.308;2024-03-07T08:50:55;2.00;99.90
52397;DHT22;38322;53.108;6.308;2024-03-07T08:53:21;1.90;99.90
52397;DHT22;38322;53.108;6.308;2024-03-07T08:55:47;1.90;99.90
52397;DHT22;38322;53.108;6.308;2024-03-07T08:58:13;1.90;99.90
52397;DHT22;38322;53.108;6.308;2024-03-07T09:00:39;1.80;99.90
52397;DHT22;38322;53.108;6.308;2024-03-07T09:03:05;1.80;99.90
52397;DHT22;38322;53.108;6.308;2024-03-07T09:05:35;1.80;99.90
52397;DHT22;38322;53.108;6.308;2024-03-07T09:08:01;1.80;99.90
52397;DHT22;38322;53.108;6.308;2024-03-07T09:10:29;1.80;99.90
52397;DHT22;38322;53.108;6.308;2024-03-07T09:12:56;1.90;99.90
52397;DHT22;38322;53.108;6.308;2024-03-07T09:15:22;1.80;99.90
52397;DHT22;38322;53.108;6.308;2024-03-07T09:17:48;1.90;99.90
52397;DHT22;38322;53.108;6.308;2024-03-07T09:20:14;1.90;99.90
52397;DHT22;38322;53.108;6.308;2024-03-07T09:22:41;2.00;99.90
52397;DHT22;38322;53.108;6.308;2024-03-07T09:25:08;1.90;99.90
52397;DHT22;38322;53.108;6.308;2024-03-07T09:27:34;2.00;99.90
52397;DHT22;38322;53.108;6.308;2024-03-07T09:30:00;1.90;99.90
52397;DHT22;38322;53.108;6.308;2024-03-07T09:32:26;1.90;99.90
52397;DHT22;38322;53.108;6.308;2024-03-07T09:34:53;2.00;99.90
52397;DHT22;38322;53.108;6.308;2024-03-07T09:37:20;2.00;99.90
52397;DHT22;38322;53.108;6.308;2024-03-07T09:39:47;1.90;99.90
52397;DHT22;38322;53.108;6.308;2024-03-07T09:42:17;2.00;99.90
52397;DHT22;38322;53.108;6.308;2024-03-07T09:44:45;2.00;99.90
52397;DHT22;38322;53.108;6.308;2024-03-07T09:47:13;2.10;99.90
52397;DHT22;38322;53.108;6.308;2024-03-07T09:49:39;2.00;99.90
52397;DHT22;38322;53.108;6.308;2024-03-07T09:52:07;2.10;99.90
52397;DHT22;38322;53.108;6.308;2024-03-07T09:54:34;2.10;99.90
52397;DHT22;38322;53.108;6.308;2024-03-07T09:57:02;2.10;99.90
52397;DHT22;38322;53.108;6.308;2024-03-07T09:59:30;2.10;99.90
52397;DHT22;38322;53.108;6.308;2024-03-07T10:01:59;2.10;99.90
52397;DHT22;38322;53.108;6.308;2024-03-07T10:04:31;2.20;99.90
52397;DHT22;38322;53.108;6.308;2024-03-07T10:06:59;2.30;99.90
52397;DHT22;38322;53.108;6.308;2024-03-07T10:09:27;2.40;99.90
52397;DHT22;38322;53.108;6.308;2024-03-07T10:11:57;2.50;99.90
52397;DHT22;38322;53.108;6.308;2024-03-07T10:14:24;2.50;99.90
52397;DHT22;38322;53.108;6.308;2024-03-07T10:16:49;2.60;99.90
52397;DHT22;38322;53.108;6.308;2024-03-07T10:19:15;2.60;99.90
52397;DHT22;38322;53.108;6.308;2024-03-07T10:21:41;2.60;99.90
52397;DHT22;38322;53.108;6.308;2024-03-07T10:24:08;2.60;99.90
52397;DHT22;38322;53.108;6.308;2024-03-07T10:26:37;2.70;99.90
52397;DHT22;38322;53.108;6.308;2024-03-07T10:29:04;2.80;99.90
52397;DHT22;38322;53.108;6.308;2024-03-07T10:31:32;2.80;99.90
52397;DHT22;38322;53.108;6.308;2024-03-07T10:34:01;2.90;99.90
52397;DHT22;38322;53.108;6.308;2024-03-07T10:36:29;2.90;99.90
52397;DHT22;38322;53.108;6.308;2024-03-07T10:39:00;2.90;99.90
52397;DHT22;38322;53.108;6.308;2024-03-07T10:41:45;2.90;99.90
52397;DHT22;38322;53.108;6.308;2024-03-07T10:44:19;3.00;99.90
52397;DHT22;38322;53.108;6.308;2024-03-07T10:46:52;3.00;99.90
52397;DHT22;38322;53.108;6.308;2024-03-07T10:49:19;3.00;99.90
52397;DHT22;38322;53.108;6.308;2024-03-07T10:52:06;3.10;99.90
52397;DHT22;38322;53.108;6.308;2024-03-07T10:54:43;3.30;99.90
52397;DHT22;38322;53.108;6.308;2024-03-07T10:59:50;3.20;99.90
52397;DHT22;38322;53.108;6.308;2024-03-07T11:02:25;3.10;99.90
52397;DHT22;38322;53.108;6.308;2024-03-07T11:04:54;3.10;99.90
52397;DHT22;38322;53.108;6.308;2024-03-07T11:07:22;3.20;99.90
52397;DHT22;38322;53.108;6.308;2024-03-07T11:09:52;3.20;99.90
52397;DHT22;38322;53.108;6.308;2024-03-07T11:12:20;3.20;99.90
52397;DHT22;38322;53.108;6.308;2024-03-07T11:14:48;3.20;99.90
52397;DHT22;38322;53.108;6.308;2024-03-07T11:17:15;3.20;99.90
52397;DHT22;38322;53.108;6.308;2024-03-07T11:19:42;3.20;99.90
52397;DHT22;38322;53.108;6.308;2024-03-07T11:22:08;3.30;99.90
52397;DHT22;38322;53.108;6.308;2024-03-07T11:24:42;3.40;99.90
52397;DHT22;38322;53.108;6.308;2024-03-07T11:27:10;3.60;99.90
52397;DHT22;38322;53.108;6.308;2024-03-07T11:29:49;3.70;99.90
52397;DHT22;38322;53.108;6.308;2024-03-07T11:32:23;3.70;99.90
52397;DHT22;38322;53.108;6.308;2024-03-07T11:34:49;3.70;99.90
52397;DHT22;38322;53.108;6.308;2024-03-07T11:37:18;3.70;99.90
52397;DHT22;38322;53.108;6.308;2024-03-07T11:39:46;3.70;99.90
52397;DHT22;38322;53.108;6.308;2024-03-07T11:42:26;3.80;99.90
52397;DHT22;38322;53.108;6.308;2024-03-07T11:44:53;3.80;99.90
52397;DHT22;38322;53.108;6.308;2024-03-07T11:47:22;3.90;99.90
52397;DHT22;38322;53.108;6.308;2024-03-07T11:49:50;3.90;99.90
52397;DHT22;38322;53.108;6.308;2024-03-07T11:52:18;4.00;99.90
52397;DHT22;38322;53.108;6.308;2024-03-07T11:54:45;4.10;99.90
52397;DHT22;38322;53.108;6.308;2024-03-07T11:57:16;4.00;99.90
52397;DHT22;38322;53.108;6.308;2024-03-07T11:59:45;3.90;99.90
52397;DHT22;38322;53.108;6.308;2024-03-07T12:02:13;3.90;99.90
52397;DHT22;38322;53.108;6.308;2024-03-07T12:04:41;3.90;99.90
52397;DHT22;38322;53.108;6.308;2024-03-07T12:07:08;3.90;99.90
52397;DHT22;38322;53.108;6.308;2024-03-07T12:09:39;3.90;99.90
52397;DHT22;38322;53.108;6.308;2024-03-07T12:12:06;4.00;99.90
52397;DHT22;38322;53.108;6.308;2024-03-07T12:14:32;4.10;99.90
52397;DHT22;38322;53.108;6.308;2024-03-07T12:17:01;4.10;99.90
52397;DHT22;38322;53.108;6.308;2024-03-07T12:19:31;4.10;99.90
52397;DHT22;38322;53.108;6.308;2024-03-07T12:22:00;4.10;99.90
52397;DHT22;38322;53.108;6.308;2024-03-07T12:24:27;4.20;99.90
52397;DHT22;38322;53.108;6.308;2024-03-07T12:27:03;4.30;99.90
52397;DHT22;38322;53.108;6.308;2024-03-07T12:29:29;4.30;99.90
52397;DHT22;38322;53.108;6.308;2024-03-07T12:31:56;4.40;99.90
52397;DHT22;38322;53.108;6.308;2024-03-07T12:34:22;4.40;99.90
52397;DHT22;38322;53.108;6.308;2024-03-07T12:36:52;4.50;99.90
52397;DHT22;38322;53.108;6.308;2024-03-07T12:39:23;4.50;99.90
52397;DHT22;38322;53.108;6.308;2024-03-07T12:41:52;4.60;99.90
52397;DHT22;38322;53.108;6.308;2024-03-07T12:44:19;4.70;99.90
52397;DHT22;38322;53.108;6.308;2024-03-07T12:46:48;4.90;99.90
52397;DHT22;38322;53.108;6.308;2024-03-07T12:49:15;5.00;99.90
52397;DHT22;38322;53.108;6.308;2024-03-07T12:51:42;5.10;99.90
52397;DHT22;38322;53.108;6.308;2024-03-07T12:54:08;5.20;99.90
52397;DHT22;38322;53.108;6.308;2024-03-07T12:56:36;5.30;99.90
52397;DHT22;38322;53.108;6.308;2024-03-07T12:59:03;5.50;99.90
52397;DHT22;38322;53.108;6.308;2024-03-07T13:01:30;5.70;99.90
52397;DHT22;38322;53.108;6.308;2024-03-07T13:03:58;5.50;99.90
52397;DHT22;38322;53.108;6.308;2024-03-07T13:06:25;5.50;99.90
52397;DHT22;38322;53.108;6.308;2024-03-07T13:08:55;5.50;99.90
52397;DHT22;38322;53.108;6.308;2024-03-07T13:11:23;5.50;99.90
52397;DHT22;38322;53.108;6.308;2024-03-07T13:13:49;5.50;99.90
52397;DHT22;38322;53.108;6.308;2024-03-07T13:16:15;5.50;99.90
52397;DHT22;38322;53.108;6.308;2024-03-07T13:18:41;5.60;99.90
52397;DHT22;38322;53.108;6.308;2024-03-07T13:21:07;5.60;99.90
52397;DHT22;38322;53.108;6.308;2024-03-07T13:23:36;5.60;99.90
52397;DHT22;38322;53.108;6.308;2024-03-07T13:26:05;5.60;99.90
52397;DHT22;38322;53.108;6.308;2024-03-07T13:28:34;5.60;99.90
52397;DHT22;38322;53.108;6.308;2024-03-07T13:31:01;5.60;99.90
52397;DHT22;38322;53.108;6.308;2024-03-07T13:33:29;5.50;99.90
52397;DHT22;38322;53.108;6.308;2024-03-07T13:35:55;5.50;99.90
52397;DHT22;38322;53.108;6.308;2024-03-07T13:38:22;5.50;99.90
52397;DHT22;38322;53.108;6.308;2024-03-07T13:40:48;5.50;99.90
52397;DHT22;38322;53.108;6.308;2024-03-07T13:43:15;5.40;99.90
52397;DHT22;38322;53.108;6.308;2024-03-07T13:45:40;5.40;99.90
52397;DHT22;38322;53.108;6.308;2024-03-07T13:48:10;5.50;99.90
52397;DHT22;38322;53.108;6.308;2024-03-07T13:50:39;5.50;99.90
52397;DHT22;38322;53.108;6.308;2024-03-07T13:53:10;5.50;99.90
52397;DHT22;38322;53.108;6.308;2024-03-07T13:58:39;5.50;99.90
52397;DHT22;38322;53.108;6.308;2024-03-07T14:01:25;5.60;99.90
52397;DHT22;38322;53.108;6.308;2024-03-07T14:09:38;5.60;99.90
52397;DHT22;38322;53.108;6.308;2024-03-07T14:12:34;5.70;99.90
52397;DHT22;38322;53.108;6.308;2024-03-07T14:24:31;5.80;99.90
52397;DHT22;38322;53.108;6.308;2024-03-07T14:27:14;5.90;99.90
52397;DHT22;38322;53.108;6.308;2024-03-07T14:32:23;5.90;99.90
52397;DHT22;38322;53.108;6.308;2024-03-07T14:37:46;5.90;99.90
52397;DHT22;38322;53.108;6.308;2024-03-07T14:40:16;5.90;99.90
52397;DHT22;38322;53.108;6.308;2024-03-07T14:42:45;5.90;99.90
52397;DHT22;38322;53.108;6.308;2024-03-07T14:45:15;5.90;99.90
52397;DHT22;38322;53.108;6.308;2024-03-07T14:47:48;5.80;99.90
52397;DHT22;38322;53.108;6.308;2024-03-07T14:50:15;5.80;99.90
52397;DHT22;38322;53.108;6.308;2024-03-07T14:52:43;5.80;99.90
52397;DHT22;38322;53.108;6.308;2024-03-07T14:55:11;5.80;99.90
52397;DHT22;38322;53.108;6.308;2024-03-07T14:57:45;5.80;99.90
52397;DHT22;38322;53.108;6.308;2024-03-07T15:00:12;5.90;99.90
52397;DHT22;38322;53.108;6.308;2024-03-07T15:02:49;5.80;99.90
52397;DHT22;38322;53.108;6.308;2024-03-07T15:05:16;5.80;99.90
52397;DHT22;38322;53.108;6.308;2024-03-07T15:07:44;5.80;99.90
52397;DHT22;38322;53.108;6.308;2024-03-07T15:10:18;5.80;99.90
52397;DHT22;38322;53.108;6.308;2024-03-07T15:12:47;5.80;99.90
52397;DHT22;38322;53.108;6.308;2024-03-07T15:15:14;5.80;99.90
52397;DHT22;38322;53.108;6.308;2024-03-07T15:17:41;5.80;99.90
52397;DHT22;38322;53.108;6.308;2024-03-07T15:20:09;5.80;99.90
52397;DHT22;38322;53.108;6.308;2024-03-07T15:22:41;5.90;99.90
52397;DHT22;38322;53.108;6.308;2024-03-07T15:25:12;5.90;99.90
52397;DHT22;38322;53.108;6.308;2024-03-07T15:27:40;6.00;99.90
52397;DHT22;38322;53.108;6.308;2024-03-07T15:30:07;6.00;99.90
52397;DHT22;38322;53.108;6.308;2024-03-07T15:32:41;6.00;99.90
52397;DHT22;38322;53.108;6.308;2024-03-07T15:35:09;6.00;99.90
52397;DHT22;38322;53.108;6.308;2024-03-07T15:37:43;6.00;99.90
52397;DHT22;38322;53.108;6.308;2024-03-07T15:40:10;6.10;99.90
52397;DHT22;38322;53.108;6.308;2024-03-07T15:42:39;6.10;99.90
52397;DHT22;38322;53.108;6.308;2024-03-07T15:45:07;6.10;99.90
52397;DHT22;38322;53.108;6.308;2024-03-07T15:47:37;6.10;99.90
52397;DHT22;38322;53.108;6.308;2024-03-07T15:50:05;6.10;99.90
52397;DHT22;38322;53.108;6.308;2024-03-07T15:52:31;6.10;99.90
52397;DHT22;38322;53.108;6.308;2024-03-07T15:55:00;6.10;99.90
52397;DHT22;38322;53.108;6.308;2024-03-07T15:57:26;6.10;99.90
52397;DHT22;38322;53.108;6.308;2024-03-07T15:59:53;6.10;99.90
52397;DHT22;38322;53.108;6.308;2024-03-07T16:02:19;6.10;99.90
52397;DHT22;38322;53.108;6.308;2024-03-07T16:04:47;6.10;99.90
52397;DHT22;38322;53.108;6.308;2024-03-07T16:07:13;6.10;99.90
52397;DHT22;38322;53.108;6.308;2024-03-07T16:09:39;6.10;99.90
52397;DHT22;38322;53.108;6.308;2024-03-07T16:12:06;6.10;99.90
52397;DHT22;38322;53.108;6.308;2024-03-07T16:14:33;6.10;99.90
52397;DHT22;38322;53.108;6.308;2024-03-07T16:16:59;6.10;99.90
52397;DHT22;38322;53.108;6.308;2024-03-07T16:19:25;6.10;99.90
52397;DHT22;38322;53.108;6.308;2024-03-07T16:21:51;6.10;99.90
52397;DHT22;38322;53.108;6.308;2024-03-07T16:24:16;6.10;99.90
52397;DHT22;38322;53.108;6.308;2024-03-07T16:26:42;6.20;99.90
52397;DHT22;38322;53.108;6.308;2024-03-07T16:29:09;6.10;99.90
52397;DHT22;38322;53.108;6.308;2024-03-07T16:31:37;6.10;99.90
52397;DHT22;38322;53.108;6.308;2024-03-07T16:34:04;6.10;99.90
52397;DHT22;38322;53.108;6.308;2024-03-07T16:36:30;6.10;99.90
52397;DHT22;38322;53.108;6.308;2024-03-07T16:38:56;6.10;99.90
52397;DHT22;38322;53.108;6.308;2024-03-07T16:41:22;6.00;99.90
52397;DHT22;38322;53.108;6.308;2024-03-07T16:43:49;6.00;99.90
52397;DHT22;38322;53.108;6.308;2024-03-07T16:46:15;5.90;99.90
52397;DHT22;38322;53.108;6.308;2024-03-07T16:48:42;5.90;99.90
52397;DHT22;38322;53.108;6.308;2024-03-07T16:51:08;5.90;99.90
52397;DHT22;38322;53.108;6.308;2024-03-07T16:53:36;5.80;99.90
52397;DHT22;38322;53.108;6.308;2024-03-07T16:56:02;5.80;99.90
52397;DHT22;38322;53.108;6.308;2024-03-07T16:58:29;5.70;99.90
52397;DHT22;38322;53.108;6.308;2024-03-07T17:00:55;5.60;99.90
52397;DHT22;38322;53.108;6.308;2024-03-07T17:03:21;5.70;99.90
52397;DHT22;38322;53.108;6.308;2024-03-07T17:05:47;5.60;99.90
52397;DHT22;38322;53.108;6.308;2024-03-07T17:08:13;5.60;99.90
52397;DHT22;38322;53.108;6.308;2024-03-07T17:10:41;5.60;99.90
52397;DHT22;38322;53.108;6.308;2024-03-07T17:13:08;5.60;99.90
52397;DHT22;38322;53.108;6.308;2024-03-07T17:15:36;5.50;99.90
52397;DHT22;38322;53.108;6.308;2024-03-07T17:18:04;5.50;99.90
52397;DHT22;38322;53.108;6.308;2024-03-07T17:20:30;5.50;99.90
52397;DHT22;38322;53.108;6.308;2024-03-07T17:22:57;5.40;99.90
52397;DHT22;38322;53.108;6.308;2024-03-07T17:25:25;5.40;99.90
52397;DHT22;38322;53.108;6.308;2024-03-07T17:27:55;5.40;99.90
52397;DHT22;38322;53.108;6.308;2024-03-07T17:30:24;5.30;99.90
52397;DHT22;38322;53.108;6.308;2024-03-07T17:32:51;5.30;99.90
52397;DHT22;38322;53.108;6.308;2024-03-07T17:35:18;5.30;99.90
52397;DHT22;38322;53.108;6.308;2024-03-07T17:37:47;5.30;99.90
52397;DHT22;38322;53.108;6.308;2024-03-07T17:40:13;5.20;99.90
52397;DHT22;38322;53.108;6.308;2024-03-07T17:42:48;5.20;99.90
52397;DHT22;38322;53.108;6.308;2024-03-07T17:45:17;5.10;99.90
52397;DHT22;38322;53.108;6.308;2024-03-07T17:47:47;5.10;99.90
52397;DHT22;38322;53.108;6.308;2024-03-07T17:50:21;5.00;99.90
52397;DHT22;38322;53.108;6.308;2024-03-07T17:52:49;5.00;99.90
52397;DHT22;38322;53.108;6.308;2024-03-07T17:55:16;4.90;99.90
52397;DHT22;38322;53.108;6.308;2024-03-07T17:57:43;4.90;99.90
52397;DHT22;38322;53.108;6.308;2024-03-07T18:00:11;4.80;99.90
52397;DHT22;38322;53.108;6.308;2024-03-07T18:02:49;4.80;99.90
52397;DHT22;38322;53.108;6.308;2024-03-07T18:05:14;4.80;99.90
52397;DHT22;38322;53.108;6.308;2024-03-07T18:07:43;4.80;99.90
52397;DHT22;38322;53.108;6.308;2024-03-07T18:10:10;4.70;99.90
52397;DHT22;38322;53.108;6.308;2024-03-07T18:12:45;4.70;99.90
52397;DHT22;38322;53.108;6.308;2024-03-07T18:15:18;4.70;99.90
52397;DHT22;38322;53.108;6.308;2024-03-07T18:17:45;4.70;99.90
52397;DHT22;38322;53.108;6.308;2024-03-07T18:20:16;4.60;99.90
52397;DHT22;38322;53.108;6.308;2024-03-07T18:22:42;4.60;99.90
52397;DHT22;38322;53.108;6.308;2024-03-07T18:25:08;4.60;99.90
52397;DHT22;38322;53.108;6.308;2024-03-07T18:27:34;4.60;99.90
52397;DHT22;38322;53.108;6.308;2024-03-07T18:30:00;4.50;99.90
52397;DHT22;38322;53.108;6.308;2024-03-07T18:32:37;4.50;99.90
52397;DHT22;38322;53.108;6.308;2024-03-07T18:35:06;4.50;99.90
52397;DHT22;38322;53.108;6.308;2024-03-07T18:37:32;4.50;99.90
52397;DHT22;38322;53.108;6.308;2024-03-07T18:40:02;4.40;99.90
52397;DHT22;38322;53.108;6.308;2024-03-07T18:42:28;4.40;99.90
52397;DHT22;38322;53.108;6.308;2024-03-07T18:44:57;4.30;99.90
52397;DHT22;38322;53.108;6.308;2024-03-07T18:47:23;4.20;99.90
52397;DHT22;38322;53.108;6.308;2024-03-07T18:49:49;4.10;99.90
52397;DHT22;38322;53.108;6.308;2024-03-07T18:52:16;4.10;99.90
52397;DHT22;38322;53.108;6.308;2024-03-07T18:54:43;4.00;99.90
52397;DHT22;38322;53.108;6.308;2024-03-07T18:57:10;3.90;99.90
52397;DHT22;38322;53.108;6.308;2024-03-07T18:59:36;3.90;99.90
52397;DHT22;38322;53.108;6.308;2024-03-07T19:02:03;3.80;99.90
52397;DHT22;38322;53.108;6.308;2024-03-07T19:04:36;3.80;99.90
52397;DHT22;38322;53.108;6.308;2024-03-07T19:07:02;3.70;99.90
52397;DHT22;38322;53.108;6.308;2024-03-07T19:09:33;3.60;99.90
52397;DHT22;38322;53.108;6.308;2024-03-07T19:11:59;3.60;99.90
52397;DHT22;38322;53.108;6.308;2024-03-07T19:14:26;3.50;99.90
52397;DHT22;38322;53.108;6.308;2024-03-07T19:16:52;3.50;99.90
52397;DHT22;38322;53.108;6.308;2024-03-07T19:19:19;3.50;99.90
52397;DHT22;38322;53.108;6.308;2024-03-07T19:21:45;3.40;99.90
52397;DHT22;38322;53.108;6.308;2024-03-07T19:24:11;3.40;99.90
52397;DHT22;38322;53.108;6.308;2024-03-07T19:26:42;3.30;99.90
52397;DHT22;38322;53.108;6.308;2024-03-07T19:29:12;3.30;99.90
52397;DHT22;38322;53.108;6.308;2024-03-07T19:31:46;3.30;99.90
52397;DHT22;38322;53.108;6.308;2024-03-07T19:34:13;3.20;99.90
52397;DHT22;38322;53.108;6.308;2024-03-07T19:36:48;3.20;99.90
52397;DHT22;38322;53.108;6.308;2024-03-07T19:39:16;3.10;99.90
52397;DHT22;38322;53.108;6.308;2024-03-07T19:41:46;3.10;99.90
52397;DHT22;38322;53.108;6.308;2024-03-07T19:44:14;3.10;99.90
52397;DHT22;38322;53.108;6.308;2024-03-07T19:46:43;3.00;99.90
52397;DHT22;38322;53.108;6.308;2024-03-07T19:49:11;3.00;99.90
52397;DHT22;38322;53.108;6.308;2024-03-07T19:51:37;2.90;99.90
52397;DHT22;38322;53.108;6.308;2024-03-07T19:54:04;3.00;99.90
52397;DHT22;38322;53.108;6.308;2024-03-07T19:56:32;2.90;99.90
52397;DHT22;38322;53.108;6.308;2024-03-07T19:58:59;2.90;99.90
52397;DHT22;38322;53.108;6.308;2024-03-07T20:01:25;2.90;99.90
52397;DHT22;38322;53.108;6.308;2024-03-07T20:03:51;2.90;99.90
52397;DHT22;38322;53.108;6.308;2024-03-07T20:06:16;2.90;99.90
52397;DHT22;38322;53.108;6.308;2024-03-07T20:08:44;2.90;99.90
52397;DHT22;38322;53.108;6.308;2024-03-07T20:11:10;2.90;99.90
52397;DHT22;38322;53.108;6.308;2024-03-07T20:13:37;2.90;99.90
52397;DHT22;38322;53.108;6.308;2024-03-07T20:16:06;2.80;99.90
52397;DHT22;38322;53.108;6.308;2024-03-07T20:18:33;2.80;99.90
52397;DHT22;38322;53.108;6.308;2024-03-07T20:21:01;2.80;99.90
52397;DHT22;38322;53.108;6.308;2024-03-07T20:23:28;2.80;99.90
52397;DHT22;38322;53.108;6.308;2024-03-07T20:25:56;2.70;99.90
52397;DHT22;38322;53.108;6.308;2024-03-07T20:28:22;2.80;99.90
52397;DHT22;38322;53.108;6.308;2024-03-07T20:30:48;2.80;99.90
52397;DHT22;38322;53.108;6.308;2024-03-07T20:33:16;2.80;99.90
52397;DHT22;38322;53.108;6.308;2024-03-07T20:35:43;3.30;99.90
52397;DHT22;38322;53.108;6.308;2024-03-07T20:38:08;2.70;99.90
52397;DHT22;38322;53.108;6.308;2024-03-07T20:40:40;2.60;99.90
52397;DHT22;38322;53.108;6.308;2024-03-07T20:43:06;2.70;99.90
52397;DHT22;38322;53.108;6.308;2024-03-07T20:45:33;2.70;99.90
52397;DHT22;38322;53.108;6.308;2024-03-07T20:48:00;2.60;99.90
52397;DHT22;38322;53.108;6.308;2024-03-07T20:50:30;2.70;99.90
52397;DHT22;38322;53.108;6.308;2024-03-07T20:52:58;2.70;99.90
52397;DHT22;38322;53.108;6.308;2024-03-07T20:55:23;2.60;99.90
52397;DHT22;38322;53.108;6.308;2024-03-07T20:57:52;2.60;99.90
52397;DHT22;38322;53.108;6.308;2024-03-07T21:00:19;2.60;99.90
